Time;durP1;ratioP1;P1;durP2;ratioP2;P2;SDS_P1;SDS_P2;PMS_P1;PMS_P2;Temp;Humidity;BMP_temperature;BMP_pressure;BME280_temperature;BME280_humidity;BME280_pressure;Samples;Min_cycle;Max_cycle;Signal;HPM_P1;HPM_P2
2023/04/22 00:02:06;;;;;;;24.07;13.90;;;;;;;10.06;96.83;94314.56;5097315;28;20201;-77
2023/04/22 00:04:33;;;;;;;23.13;13.43;;;;;;;10.03;96.90;94309.81;5091998;28;20233;-77
2023/04/22 00:07:00;;;;;;;22.80;13.47;;;;;;;9.90;96.78;94315.22;5092760;28;20303;-75
2023/04/22 00:09:27;;;;;;;21.47;12.93;;;;;;;9.82;97.15;94305.91;5093171;28;20201;-77
2023/04/22 00:11:54;;;;;;;18.90;12.80;;;;;;;9.69;97.23;94306.13;5102479;28;20575;-77
2023/04/22 00:14:20;;;;;;;23.23;13.43;;;;;;;9.66;97.97;94302.16;5107910;28;20675;-75
2023/04/22 00:16:49;;;;;;;22.43;14.23;;;;;;;9.73;98.91;94319.41;5112889;28;20188;-76
2023/04/22 00:19:16;;;;;;;23.30;14.37;;;;;;;9.78;99.67;94315.19;5108294;28;20662;-76
2023/04/22 00:21:42;;;;;;;26.03;14.10;;;;;;;9.56;99.87;94294.09;5108028;28;20224;-76
2023/04/22 00:24:09;;;;;;;22.37;13.70;;;;;;;9.74;100.00;94308.03;5108585;28;20695;-77
2023/04/22 00:26:36;;;;;;;24.37;14.13;;;;;;;9.72;100.00;94308.28;5092751;28;20193;-77
2023/04/22 00:29:03;;;;;;;19.23;14.40;;;;;;;9.73;100.00;94317.63;5105838;28;20203;-76
2023/04/22 00:31:30;;;;;;;24.33;15.13;;;;;;;9.78;100.00;94306.59;5108197;28;20220;-77
2023/04/22 00:33:59;;;;;;;27.00;15.53;;;;;;;9.86;100.00;94321.84;5109166;28;20887;-77
2023/04/22 00:36:26;;;;;;;24.87;14.77;;;;;;;9.78;100.00;94322.97;5091535;28;20192;-77
2023/04/22 00:38:53;;;;;;;24.17;16.13;;;;;;;9.84;100.00;94322.06;5103605;28;20307;-77
2023/04/22 00:41:20;;;;;;;26.50;16.07;;;;;;;9.85;100.00;94321.06;5107783;28;20203;-77
2023/04/22 00:43:47;;;;;;;21.13;14.70;;;;;;;9.86;99.58;94320.06;5110388;28;20200;-77
2023/04/22 00:46:16;;;;;;;24.07;14.83;;;;;;;9.79;99.95;94321.13;5091761;28;20201;-77
2023/04/22 00:48:43;;;;;;;20.87;14.33;;;;;;;9.78;99.06;94315.19;5102893;28;20253;-77
2023/04/22 00:51:11;;;;;;;22.73;14.53;;;;;;;9.77;99.68;94318.78;5105222;28;20811;-76
2023/04/22 00:53:38;;;;;;;21.63;13.77;;;;;;;9.77;99.94;94323.16;5091675;28;20197;-76
2023/04/22 00:56:05;;;;;;;24.87;15.40;;;;;;;9.80;99.90;94326.13;5092317;28;20258;-77
2023/04/22 00:58:33;;;;;;;32.47;16.20;;;;;;;9.78;100.00;94327.34;5101130;28;20212;-77
2023/04/22 01:00:59;;;;;;;21.67;14.27;;;;;;;9.65;99.46;94320.53;5105671;28;21482;-77
2023/04/22 01:03:29;;;;;;;24.00;15.70;;;;;;;9.62;98.98;94328.75;5092083;28;20206;-77
2023/04/22 01:05:57;;;;;;;23.40;15.23;;;;;;;9.57;98.58;94331.22;5092065;28;20228;-77
2023/04/22 01:08:29;;;;;;;24.57;15.77;;;;;;;9.52;99.26;94331.09;5091331;28;20289;-77
2023/04/22 01:10:56;;;;;;;27.20;16.63;;;;;;;9.41;99.27;94327.41;5092282;28;20225;-77
2023/04/22 01:13:23;;;;;;;25.20;16.60;;;;;;;9.43;99.74;94329.81;5091331;28;20223;-77
2023/04/22 01:15:50;;;;;;;26.37;16.47;;;;;;;9.31;99.83;94326.38;5105622;28;20210;-77
2023/04/22 01:18:17;;;;;;;25.77;16.87;;;;;;;9.41;100.00;94331.81;5107589;28;20200;-77
2023/04/22 01:20:44;;;;;;;25.67;16.80;;;;;;;9.40;100.00;94330.25;5107978;28;20208;-79
2023/04/22 01:23:18;;;;;;;26.70;17.37;;;;;;;9.36;100.00;94337.66;5092109;28;20288;-79
2023/04/22 01:25:46;;;;;;;26.50;16.83;;;;;;;9.32;100.00;94339.09;5090889;28;20192;-80
2023/04/22 01:28:13;;;;;;;29.17;18.43;;;;;;;9.24;100.00;94336.00;5094800;28;20663;-79
2023/04/22 01:30:41;;;;;;;28.63;16.07;;;;;;;9.17;100.00;94333.50;5108317;28;20228;-80
2023/04/22 01:33:08;;;;;;;25.97;16.20;;;;;;;9.16;100.00;94334.50;5091757;28;20204;-79
2023/04/22 01:35:35;;;;;;;24.83;15.37;;;;;;;9.12;100.00;94330.75;5091169;28;20204;-79
2023/04/22 01:38:03;;;;;;;23.90;14.20;;;;;;;9.11;100.00;94332.56;5090929;28;20200;-79
2023/04/22 01:40:31;;;;;;;24.53;15.87;;;;;;;9.09;100.00;94326.78;5091505;28;20692;-77
2023/04/22 01:42:59;;;;;;;25.53;15.47;;;;;;;9.07;100.00;94328.81;5109605;28;20646;-77
2023/04/22 01:45:26;;;;;;;27.27;14.63;;;;;;;9.04;100.00;94321.47;5096902;28;20201;-77
2023/04/22 01:47:53;;;;;;;23.57;14.63;;;;;;;9.02;100.00;94331.28;5097979;28;20205;-77
2023/04/22 01:50:20;;;;;;;25.40;14.40;;;;;;;9.02;100.00;94325.28;5114750;28;20238;-77
2023/04/22 01:52:47;;;;;;;27.23;16.00;;;;;;;9.01;100.00;94319.31;5112538;28;20275;-79
2023/04/22 01:55:14;;;;;;;26.70;16.77;;;;;;;9.01;100.00;94324.50;5101866;28;20642;-80
2023/04/22 01:57:42;;;;;;;23.90;15.57;;;;;;;8.93;100.00;94324.78;5095110;28;20212;-80
2023/04/22 02:00:10;;;;;;;25.70;14.53;;;;;;;8.91;100.00;94319.03;5115283;28;20577;-78
2023/04/22 02:02:37;;;;;;;20.67;14.57;;;;;;;8.94;100.00;94328.19;5095485;28;20250;-78
2023/04/22 02:05:05;;;;;;;23.47;14.47;;;;;;;8.92;100.00;94323.19;5102788;28;20240;-78
2023/04/22 02:07:32;;;;;;;26.83;16.93;;;;;;;8.98;100.00;94324.13;5110447;28;20204;-78
2023/04/22 02:10:00;;;;;;;31.00;17.67;;;;;;;9.01;100.00;94323.69;5095323;28;20269;-77
2023/04/22 02:12:27;;;;;;;34.47;17.33;;;;;;;9.10;100.00;94322.41;5094066;28;20716;-77
2023/04/22 02:14:55;;;;;;;22.13;14.70;;;;;;;9.08;100.00;94325.22;5101383;28;20211;-77
2023/04/22 02:17:21;;;;;;;23.23;13.40;;;;;;;9.08;100.00;94324.44;5111571;28;20211;-79
2023/04/22 02:19:48;;;;;;;20.77;13.83;;;;;;;9.04;100.00;94324.06;5095201;28;20208;-78
2023/04/22 02:22:15;;;;;;;20.53;12.73;;;;;;;9.06;100.00;94326.47;5094180;28;20196;-78
2023/04/22 02:24:42;;;;;;;21.37;13.30;;;;;;;9.09;100.00;94323.44;5094779;28;20207;-78
2023/04/22 02:27:09;;;;;;;20.70;13.37;;;;;;;9.10;100.00;94323.22;5095104;28;20201;-82
2023/04/22 02:29:36;;;;;;;20.90;13.13;;;;;;;9.08;100.00;94322.63;5109752;28;20199;-82
2023/04/22 02:32:04;;;;;;;23.37;14.80;;;;;;;9.10;100.00;94325.78;5100048;28;20221;-81
2023/04/22 02:34:31;;;;;;;22.50;14.50;;;;;;;9.10;100.00;94328.38;5094887;28;20204;-81
2023/04/22 02:36:58;;;;;;;22.87;14.50;;;;;;;9.14;100.00;94328.75;5095182;28;20224;-81
2023/04/22 02:39:25;;;;;;;22.70;15.47;;;;;;;9.09;100.00;94318.25;5094585;28;20192;-82
2023/04/22 02:41:52;;;;;;;24.63;16.17;;;;;;;9.06;100.00;94319.44;5093702;28;20675;-82
2023/04/22 02:44:18;;;;;;;23.73;14.60;;;;;;;9.15;100.00;94322.53;5094543;28;20205;-79
2023/04/22 02:46:45;;;;;;;24.27;15.03;;;;;;;9.21;100.00;94331.25;5094070;28;20226;-78
2023/04/22 02:49:13;;;;;;;27.07;15.90;;;;;;;9.35;100.00;94340.50;5093623;28;20204;-80
2023/04/22 02:51:40;;;;;;;25.83;16.30;;;;;;;9.26;100.00;94340.00;5102055;28;20216;-79
2023/04/22 02:54:07;;;;;;;26.80;16.53;;;;;;;9.16;100.00;94336.31;5110591;28;21405;-79
2023/04/22 02:56:34;;;;;;;31.83;16.33;;;;;;;9.04;99.64;94336.22;5094217;28;20225;-78
2023/04/22 02:59:01;;;;;;;23.50;14.93;;;;;;;8.89;99.86;94339.19;5105179;28;20204;-78
2023/04/22 03:01:27;;;;;;;25.20;16.00;;;;;;;8.68;100.00;94341.41;5111594;28;20257;-76
2023/04/22 03:03:54;;;;;;;24.43;15.10;;;;;;;8.55;100.00;94337.13;5111975;28;20215;-79
2023/04/22 03:06:22;;;;;;;29.53;15.70;;;;;;;8.46;100.00;94344.38;5094101;28;20199;-80
2023/04/22 03:08:49;;;;;;;27.23;15.77;;;;;;;8.43;100.00;94338.81;5094167;28;20204;-80
2023/04/22 03:11:16;;;;;;;28.57;15.53;;;;;;;8.50;100.00;94344.75;5093242;28;20220;-79
2023/04/22 03:13:43;;;;;;;25.83;16.03;;;;;;;8.57;100.00;94340.31;5094543;28;20254;-80
2023/04/22 03:16:10;;;;;;;23.93;15.43;;;;;;;8.63;100.00;94338.66;5110694;28;20196;-79
2023/04/22 03:18:36;;;;;;;22.93;15.10;;;;;;;8.69;100.00;94337.78;5099667;28;20654;-79
2023/04/22 03:21:04;;;;;;;22.90;15.50;;;;;;;8.75;100.00;94339.50;5093513;28;20215;-78
2023/04/22 03:23:32;;;;;;;27.17;16.77;;;;;;;8.74;100.00;94343.13;5094263;28;20193;-79
2023/04/22 03:25:59;;;;;;;30.03;18.40;;;;;;;8.73;100.00;94342.34;5093637;28;20201;-78
2023/04/22 03:28:26;;;;;;;29.23;18.23;;;;;;;8.72;100.00;94340.75;5098521;28;20211;-79
2023/04/22 03:30:52;;;;;;;30.30;17.77;;;;;;;8.75;100.00;94344.69;5108290;28;20232;-79
2023/04/22 03:33:19;;;;;;;27.90;17.57;;;;;;;8.66;100.00;94344.19;5094152;28;20196;-79
2023/04/22 03:35:48;;;;;;;24.97;17.63;;;;;;;8.72;100.00;94350.31;5093636;28;20201;-79
2023/04/22 03:38:14;;;;;;;29.30;18.03;;;;;;;8.73;100.00;94350.09;5092502;28;20235;-79
2023/04/22 03:40:43;;;;;;;32.70;17.70;;;;;;;8.72;100.00;94350.31;5093931;28;20292;-79
2023/04/22 03:43:10;;;;;;;31.13;18.03;;;;;;;8.70;100.00;94342.75;5093551;28;20616;-78
2023/04/22 03:45:36;;;;;;;27.17;17.50;;;;;;;8.83;100.00;94360.00;5092558;28;20205;-79
2023/04/22 03:48:03;;;;;;;26.43;17.67;;;;;;;8.81;100.00;94349.81;5092844;28;20201;-78
2023/04/22 03:50:30;;;;;;;30.50;17.47;;;;;;;8.85;100.00;94361.34;5093271;28;20587;-78
2023/04/22 03:52:57;;;;;;;27.17;17.73;;;;;;;8.88;100.00;94363.53;5111696;28;20204;-78
2023/04/22 03:55:24;;;;;;;28.73;17.70;;;;;;;8.84;100.00;94362.34;5108671;28;20207;-77
2023/04/22 03:57:52;;;;;;;29.90;17.03;;;;;;;8.84;100.00;94358.97;5108883;28;20650;-77
2023/04/22 04:00:19;;;;;;;28.57;17.30;;;;;;;8.87;100.00;94368.91;5112994;28;20200;-77
2023/04/22 04:02:45;;;;;;;33.33;18.33;;;;;;;8.87;100.00;94374.88;5093684;28;20204;-76
2023/04/22 04:05:12;;;;;;;36.37;20.83;;;;;;;8.93;100.00;94368.06;5101538;28;20231;-76
2023/04/22 04:07:39;;;;;;;37.77;18.33;;;;;;;8.94;100.00;94372.22;5107130;28;20204;-78
2023/04/22 04:10:07;;;;;;;30.50;18.50;;;;;;;8.92;100.00;94374.22;5093188;28;20667;-80
2023/04/22 04:12:34;;;;;;;33.23;18.13;;;;;;;8.89;100.00;94380.63;5092335;28;20687;-80
2023/04/22 04:15:03;;;;;;;30.47;17.43;;;;;;;8.88;100.00;94376.47;5100210;28;20215;-79
2023/04/22 04:17:30;;;;;;;28.87;17.33;;;;;;;8.90;100.00;94373.66;5109437;28;20209;-77
2023/04/22 04:19:56;;;;;;;30.23;17.83;;;;;;;8.92;100.00;94375.03;5113416;28;20196;-76
2023/04/22 04:22:23;;;;;;;32.60;18.70;;;;;;;8.89;100.00;94366.88;5108810;28;20208;-78
2023/04/22 04:24:51;;;;;;;29.67;18.57;;;;;;;9.03;100.00;94383.91;5102823;28;20244;-77
2023/04/22 04:27:18;;;;;;;38.70;21.60;;;;;;;9.04;100.00;94385.47;5091895;28;20339;-78
2023/04/22 04:29:44;;;;;;;39.90;23.03;;;;;;;9.04;100.00;94385.47;5110784;28;20207;-79
2023/04/22 04:32:13;;;;;;;38.63;22.47;;;;;;;9.08;100.00;94394.41;5098960;28;20289;-82
2023/04/22 04:34:41;;;;;;;39.03;22.37;;;;;;;9.07;100.00;94391.03;5094450;28;20291;-80
2023/04/22 04:37:08;;;;;;;39.27;23.13;;;;;;;9.05;100.00;94387.06;5092464;28;20682;-80
2023/04/22 04:39:34;;;;;;;37.40;21.77;;;;;;;9.16;100.00;94393.34;5092523;28;20209;-81
2023/04/22 04:42:01;;;;;;;39.27;20.97;;;;;;;9.21;100.00;94393.47;5101784;28;20253;-78
2023/04/22 04:44:30;;;;;;;25.73;17.10;;;;;;;9.17;100.00;94400.13;5104587;28;20227;-78
2023/04/22 04:46:57;;;;;;;29.20;16.40;;;;;;;9.26;100.00;94406.59;5092197;28;20193;-77
2023/04/22 04:49:25;;;;;;;23.00;14.73;;;;;;;9.32;100.00;94410.94;5108040;28;20237;-79
2023/04/22 04:51:52;;;;;;;24.53;14.60;;;;;;;9.37;100.00;94411.06;5098622;28;20216;-80
2023/04/22 04:54:19;;;;;;;20.17;12.53;;;;;;;9.39;100.00;94404.66;5091488;28;20211;-80
2023/04/22 04:56:46;;;;;;;19.00;13.00;;;;;;;9.48;100.00;94410.34;5092490;28;20235;-78
2023/04/22 04:59:13;;;;;;;20.07;12.37;;;;;;;9.48;100.00;94418.91;5104033;28;20204;-79
2023/04/22 05:01:40;;;;;;;18.80;12.07;;;;;;;9.51;100.00;94417.69;5100327;28;20544;-79
2023/04/22 05:04:06;;;;;;;18.87;13.10;;;;;;;9.53;100.00;94421.66;5091337;28;20236;-80
2023/04/22 05:06:35;;;;;;;21.47;12.13;;;;;;;9.62;100.00;94419.56;5092627;28;20196;-77
2023/04/22 05:09:01;;;;;;;20.30;13.77;;;;;;;9.68;100.00;94414.28;5092067;28;20683;-77
2023/04/22 05:11:28;;;;;;;26.20;13.37;;;;;;;9.73;99.84;94420.63;5098018;28;20639;-78
2023/04/22 05:13:55;;;;;;;19.53;12.77;;;;;;;9.74;100.00;94432.59;5109445;28;20195;-77
2023/04/22 05:16:22;;;;;;;20.63;13.43;;;;;;;9.78;99.58;94429.34;5091557;28;20205;-77
2023/04/22 05:18:49;;;;;;;25.50;13.83;;;;;;;9.80;99.84;94427.34;5091611;28;20205;-80
2023/04/22 05:21:15;;;;;;;24.23;14.30;;;;;;;9.86;99.25;94425.66;5089651;28;20663;-78
2023/04/22 05:23:44;;;;;;;22.03;13.67;;;;;;;9.85;98.82;94424.88;5092043;28;20196;-79
2023/04/22 05:26:10;;;;;;;21.77;14.27;;;;;;;9.86;99.48;94433.44;5091594;28;20224;-79
2023/04/22 05:28:37;;;;;;;21.10;14.10;;;;;;;9.86;99.29;94430.84;5090950;28;20207;-77
2023/04/22 05:31:05;;;;;;;20.83;13.70;;;;;;;9.89;98.65;94431.22;5090591;28;20215;-78
2023/04/22 05:33:32;;;;;;;23.97;13.90;;;;;;;9.97;97.93;94432.72;5092154;28;20220;-76
2023/04/22 05:35:59;;;;;;;19.90;12.73;;;;;;;9.98;98.33;94442.88;5107004;28;20233;-76
2023/04/22 05:38:26;;;;;;;21.83;13.47;;;;;;;10.00;98.03;94435.66;5107545;28;20492;-78
2023/04/22 05:40:54;;;;;;;23.10;13.33;;;;;;;10.06;97.65;94431.41;5106723;28;20200;-76
2023/04/22 05:43:21;;;;;;;21.07;13.00;;;;;;;10.09;97.19;94430.97;5091075;28;20207;-76
2023/04/22 05:45:47;;;;;;;22.10;13.00;;;;;;;10.13;97.18;94437.31;5104947;28;20588;-76
2023/04/22 05:48:14;;;;;;;22.50;13.33;;;;;;;10.11;97.20;94432.31;5107723;28;20256;-77
2023/04/22 05:50:41;;;;;;;19.73;12.60;;;;;;;10.15;97.38;94430.09;5108257;28;20208;-77
2023/04/22 05:53:08;;;;;;;25.70;13.23;;;;;;;10.23;97.21;94437.59;5111185;28;20277;-77
2023/04/22 05:55:35;;;;;;;16.87;12.33;;;;;;;10.29;95.97;94430.72;5107663;28;20200;-77
2023/04/22 05:58:03;;;;;;;22.53;12.73;;;;;;;10.34;96.58;94438.63;5103738;28;20205;-78
2023/04/22 06:00:30;;;;;;;21.90;12.83;;;;;;;10.34;96.76;94434.22;5109604;28;20195;-78
2023/04/22 06:02:57;;;;;;;20.17;13.60;;;;;;;10.34;96.80;94423.03;5109419;28;20666;-78
2023/04/22 06:05:24;;;;;;;20.20;12.57;;;;;;;10.44;96.10;94428.50;5096763;28;20269;-78
2023/04/22 06:07:51;;;;;;;23.87;13.23;;;;;;;10.54;94.27;94426.13;5090593;28;20208;-83
2023/04/22 06:10:18;;;;;;;25.40;13.33;;;;;;;10.40;94.68;94401.38;5091367;28;20691;-80
2023/04/22 06:12:45;;;;;;;20.60;13.60;;;;;;;10.56;95.01;94424.13;5090910;28;20244;-80
2023/04/22 06:15:13;;;;;;;23.37;15.07;;;;;;;10.66;95.72;94434.75;5090163;28;20565;-81
2023/04/22 06:17:40;;;;;;;23.67;15.70;;;;;;;10.77;95.65;94423.56;5090272;28;20207;-80
2023/04/22 06:20:08;;;;;;;23.33;16.03;;;;;;;10.68;94.84;94420.50;5091299;28;20200;-79
2023/04/22 06:22:35;;;;;;;25.30;16.00;;;;;;;10.74;95.08;94426.63;5090601;28;20208;-80
2023/04/22 06:25:02;;;;;;;29.07;15.23;;;;;;;10.80;95.60;94431.72;5090963;28;20205;-82
2023/04/22 06:27:28;;;;;;;25.67;15.17;;;;;;;10.93;95.58;94424.72;5090480;28;20208;-80
2023/04/22 06:29:55;;;;;;;22.00;15.43;;;;;;;11.00;94.92;94430.59;5109444;28;20200;-80
2023/04/22 06:32:23;;;;;;;22.80;13.80;;;;;;;11.08;95.12;94427.69;5093657;28;20220;-79
2023/04/22 06:34:50;;;;;;;21.03;14.07;;;;;;;11.15;94.96;94433.56;5093970;28;20278;-80
2023/04/22 06:37:17;;;;;;;22.17;13.23;;;;;;;11.07;94.84;94420.88;5093900;28;20204;-80
2023/04/22 06:39:44;;;;;;;23.33;12.73;;;;;;;11.26;94.00;94436.16;5093992;28;20564;-76
2023/04/22 06:42:11;;;;;;;18.40;12.70;;;;;;;11.37;93.34;94435.34;5106073;28;20203;-77
2023/04/22 06:44:38;;;;;;;20.83;11.50;;;;;;;11.29;93.70;94422.69;5105745;28;20219;-78
2023/04/22 06:47:04;;;;;;;17.80;10.10;;;;;;;11.50;92.86;94433.53;5093502;28;20671;-77
2023/04/22 06:49:34;;;;;;;13.77;10.23;;;;;;;11.50;93.39;94430.91;5111098;28;20631;-77
2023/04/22 06:52:01;;;;;;;15.70;10.07;;;;;;;11.51;93.17;94425.50;5111152;28;20231;-76
2023/04/22 06:54:28;;;;;;;14.87;10.47;;;;;;;11.60;93.15;94431.16;5110366;28;20207;-77
2023/04/22 06:56:55;;;;;;;14.17;10.67;;;;;;;11.65;92.69;94439.84;5114696;28;20195;-78
2023/04/22 06:59:22;;;;;;;17.03;9.07;;;;;;;11.60;92.54;94439.72;5097127;28;20200;-76
2023/04/22 07:01:48;;;;;;;13.33;9.20;;;;;;;11.63;92.20;94441.88;5103777;28;20196;-76
2023/04/22 07:04:15;;;;;;;12.77;9.43;;;;;;;11.74;91.48;94440.31;5111064;28;20239;-77
2023/04/22 07:06:44;;;;;;;14.77;8.97;;;;;;;11.67;91.12;94442.22;5114233;28;20245;-77
2023/04/22 07:09:11;;;;;;;13.83;9.17;;;;;;;11.72;91.21;94448.34;5110428;28;20234;-77
2023/04/22 07:11:38;;;;;;;11.87;9.27;;;;;;;11.83;90.27;94444.16;5110601;28;20272;-75
2023/04/22 07:14:05;;;;;;;14.60;10.37;;;;;;;11.92;90.51;94443.53;5110089;28;20210;-75
2023/04/22 07:16:31;;;;;;;17.23;9.93;;;;;;;11.97;90.70;94442.84;5113669;28;20200;-76
2023/04/22 07:18:59;;;;;;;14.07;10.07;;;;;;;12.10;90.89;94447.00;5110639;28;20619;-76
2023/04/22 07:21:25;;;;;;;15.43;10.10;;;;;;;12.20;88.87;94447.19;5110239;28;20196;-76
2023/04/22 07:23:54;;;;;;;18.93;9.50;;;;;;;12.29;87.86;94444.00;5112170;28;20184;-76
2023/04/22 07:26:20;;;;;;;13.70;9.80;;;;;;;12.39;88.46;94443.34;5111803;28;20204;-76
2023/04/22 07:28:47;;;;;;;13.83;10.37;;;;;;;12.53;88.21;94453.25;5110512;28;20204;-76
2023/04/22 07:31:14;;;;;;;13.07;9.80;;;;;;;12.64;87.83;94449.00;5110136;28;20211;-76
2023/04/22 07:33:41;;;;;;;12.27;9.20;;;;;;;12.67;87.05;94451.13;5113670;28;20595;-76
2023/04/22 07:36:08;;;;;;;11.43;8.53;;;;;;;12.60;86.32;94439.28;5110611;28;20296;-76
2023/04/22 07:38:35;;;;;;;14.30;9.43;;;;;;;12.71;85.64;94451.47;5100446;28;20665;-76
2023/04/22 07:41:03;;;;;;;13.13;8.43;;;;;;;12.83;84.81;94449.59;5094330;28;20205;-76
2023/04/22 07:43:30;;;;;;;12.30;7.50;;;;;;;12.92;82.12;94461.22;5093229;28;20201;-76
2023/04/22 07:45:57;;;;;;;11.10;7.27;;;;;;;12.95;81.97;94458.13;5108378;28;20269;-76
2023/04/22 07:48:24;;;;;;;10.80;7.77;;;;;;;12.95;82.27;94447.69;5110014;28;20200;-76
2023/04/22 07:50:51;;;;;;;13.47;7.53;;;;;;;12.90;82.44;94448.41;5110689;28;20204;-76
2023/04/22 07:53:19;;;;;;;11.47;7.80;;;;;;;12.89;82.72;94443.44;5113205;28;20731;-76
2023/04/22 07:55:48;;;;;;;11.67;8.20;;;;;;;12.56;82.41;94373.78;5109605;28;20220;-76
2023/04/22 07:58:16;;;;;;;18.70;8.03;;;;;;;13.07;81.82;94438.78;5110090;28;20204;-77
2023/04/22 08:00:43;;;;;;;12.93;7.20;;;;;;;13.16;80.74;94441.78;5109237;28;20293;-76
2023/04/22 08:03:10;;;;;;;10.57;6.83;;;;;;;13.22;81.08;94443.44;5112369;28;20692;-77
2023/04/22 08:05:36;;;;;;;10.83;7.00;;;;;;;13.29;80.32;94441.47;5109727;28;20239;-75
2023/04/22 08:08:03;;;;;;;14.00;8.20;;;;;;;13.40;80.03;94435.34;5104399;28;20648;-77
2023/04/22 08:10:30;;;;;;;13.30;7.87;;;;;;;13.42;80.06;94440.34;5092493;28;20599;-76
2023/04/22 08:12:57;;;;;;;14.17;8.57;;;;;;;13.48;79.58;94440.16;5110841;28;20586;-76
2023/04/22 08:15:25;;;;;;;14.00;7.30;;;;;;;13.53;78.15;94434.22;5096645;28;20234;-79
2023/04/22 08:17:52;;;;;;;10.90;7.30;;;;;;;13.61;78.38;94442.44;5095657;28;20210;-78
2023/04/22 08:20:19;;;;;;;11.73;6.90;;;;;;;13.72;76.54;94432.09;5113204;28;20688;-80
2023/04/22 08:22:46;;;;;;;9.57;6.43;;;;;;;13.77;75.89;94440.00;5092400;28;20197;-81
2023/04/22 08:25:13;;;;;;;13.97;7.57;;;;;;;13.85;75.14;94442.22;5092240;28;20333;-81
2023/04/22 08:27:40;;;;;;;12.80;7.33;;;;;;;13.88;75.21;94428.66;5091623;28;20200;-79
2023/04/22 08:30:07;;;;;;;11.17;6.67;;;;;;;14.02;75.77;94433.28;5112176;28;20200;-80
2023/04/22 08:32:36;;;;;;;11.53;6.50;;;;;;;14.22;75.90;94430.09;5093252;28;20224;-78
2023/04/22 08:35:02;;;;;;;8.73;6.30;;;;;;;14.17;74.68;94430.00;5091660;28;20204;-79
2023/04/22 08:37:29;;;;;;;8.90;6.10;;;;;;;14.20;74.38;94425.09;5091041;28;20586;-79
2023/04/22 08:39:56;;;;;;;10.30;6.23;;;;;;;14.36;73.52;94417.44;5092075;28;20193;-79
2023/04/22 08:42:23;;;;;;;8.67;6.03;;;;;;;14.36;73.20;94422.66;5091262;28;20254;-79
2023/04/22 08:44:51;;;;;;;12.67;6.00;;;;;;;14.41;73.20;94422.72;5091097;28;20205;-79
2023/04/22 08:47:20;;;;;;;9.47;6.07;;;;;;;14.55;71.47;94410.81;5090388;28;20269;-80
2023/04/22 08:50:04;;;;;;;10.07;6.43;;;;;;;14.57;70.87;94403.53;5094567;28;20590;-80
2023/04/22 08:52:31;;;;;;;15.10;7.00;;;;;;;14.73;71.00;94405.22;5094724;28;20303;-80
2023/04/22 08:54:58;;;;;;;16.53;6.50;;;;;;;14.78;70.18;94407.88;5089498;28;20208;-80
2023/04/22 08:57:26;;;;;;;10.67;6.37;;;;;;;14.89;70.11;94400.91;5094067;28;20200;-77
2023/04/22 09:00:00;;;;;;;10.23;6.40;;;;;;;15.07;70.45;94413.59;5099800;28;20207;-77
2023/04/22 09:02:31;;;;;;;12.13;6.40;;;;;;;15.24;68.79;94401.94;5095387;28;20200;-78
2023/04/22 09:05:05;;;;;;;16.33;6.20;;;;;;;15.37;68.24;94399.91;5096789;28;20229;-78
2023/04/22 09:07:34;;;;;;;10.47;6.43;;;;;;;15.51;67.74;94403.69;5094704;28;20584;-77
2023/04/22 09:10:01;;;;;;;12.00;6.10;;;;;;;15.60;67.39;94399.53;5097840;28;20717;-77
2023/04/22 09:12:28;;;;;;;8.37;5.80;;;;;;;15.67;66.38;94402.75;5094463;28;20295;-76
2023/04/22 09:14:56;;;;;;;11.17;5.90;;;;;;;15.80;66.68;94402.25;5101300;28;20642;-77
2023/04/22 09:17:30;;;;;;;10.73;5.90;;;;;;;15.89;67.14;94396.28;5098284;28;20246;-77
2023/04/22 09:19:57;;;;;;;10.07;6.00;;;;;;;16.05;66.40;94397.09;5102068;28;20617;-76
2023/04/22 09:22:27;;;;;;;12.20;5.97;;;;;;;16.24;65.60;94392.97;5088888;28;20208;-76
2023/04/22 09:24:54;;;;;;;12.33;5.77;;;;;;;16.41;65.75;94398.78;5092185;28;20224;-76
2023/04/22 09:27:25;;;;;;;105.63;18.30;;;;;;;16.61;65.14;94392.78;5100588;28;20664;-75
2023/04/22 09:29:52;;;;;;;14.67;6.90;;;;;;;16.67;63.33;94397.00;5105018;28;20291;-76
2023/04/22 09:32:19;;;;;;;19.50;7.23;;;;;;;16.76;63.63;94389.41;5100368;28;20204;-79
2023/04/22 09:34:51;;;;;;;14.27;6.60;;;;;;;16.83;61.86;94397.78;5092532;28;20203;-79
2023/04/22 09:37:22;;;;;;;10.30;6.07;;;;;;;16.98;61.91;94384.66;5089858;28;20236;-79
2023/04/22 09:39:51;;;;;;;9.60;5.67;;;;;;;17.13;61.32;94387.28;5090222;28;20207;-79
2023/04/22 09:42:19;;;;;;;12.70;7.07;;;;;;;17.34;59.81;94383.56;5090592;28;20200;-79
2023/04/22 09:44:47;;;;;;;11.40;6.40;;;;;;;17.51;61.19;94383.25;5094918;28;20216;-79
2023/04/22 09:47:14;;;;;;;12.07;6.50;;;;;;;17.75;58.90;94397.38;5095684;28;20208;-80
2023/04/22 09:49:46;;;;;;;11.53;6.10;;;;;;;17.92;58.72;94391.81;5092835;28;20223;-78
2023/04/22 09:52:22;;;;;;;17.60;6.03;;;;;;;18.05;58.14;94391.22;5102755;28;20211;-77
2023/04/22 09:54:51;;;;;;;11.37;5.60;;;;;;;18.11;58.53;94384.88;5099132;28;20226;-75
2023/04/22 09:57:18;;;;;;;10.17;4.80;;;;;;;18.12;57.55;94394.38;5093847;28;20269;-76
2023/04/22 09:59:45;;;;;;;11.13;4.70;;;;;;;18.00;58.08;94380.75;5105973;28;20678;-77
2023/04/22 10:02:12;;;;;;;8.53;3.80;;;;;;;17.85;56.45;94386.84;5099249;28;20295;-77
2023/04/22 10:04:39;;;;;;;8.43;4.17;;;;;;;17.70;56.95;94386.91;5096717;28;20227;-76
2023/04/22 10:07:06;;;;;;;12.07;4.57;;;;;;;17.54;56.93;94383.56;5100373;28;20208;-76
2023/04/22 10:09:34;;;;;;;6.63;4.53;;;;;;;17.50;57.37;94379.03;5105455;28;20589;-76
2023/04/22 10:12:02;;;;;;;9.37;4.13;;;;;;;17.73;56.49;94383.75;5103962;28;20207;-76
2023/04/22 10:14:29;;;;;;;6.80;4.07;;;;;;;18.09;56.60;94384.38;5098164;28;20732;-76
2023/04/22 10:17:01;;;;;;;8.38;3.90;;;;;;;18.48;53.71;94373.88;5100163;28;20196;-76
2023/04/22 10:19:28;;;;;;;6.07;3.85;;;;;;;18.63;53.10;94366.72;5103852;28;20188;-76
2023/04/22 10:21:58;;;;;;;5.93;3.40;;;;;;;18.90;50.50;94376.00;5104741;28;20253;-77
2023/04/22 10:24:27;;;;;;;19.98;3.85;;;;;;;19.22;49.97;94373.56;5098192;28;20208;-76
2023/04/22 10:26:56;;;;;;;4.45;3.40;;;;;;;19.47;48.00;94375.22;5097521;28;20204;-78
2023/04/22 10:29:26;;;;;;;5.72;4.57;;;;;;;19.69;48.85;94363.09;5108855;28;20253;-75
2023/04/22 10:31:57;;;;;;;8.27;3.53;;;;;;;19.94;47.09;94369.16;5097921;28;20196;-77
2023/04/22 10:34:24;;;;;;;5.40;3.60;;;;;;;20.21;46.80;94369.31;5095540;28;20205;-77
2023/04/22 10:36:56;;;;;;;7.93;3.85;;;;;;;20.40;45.21;94353.53;5091747;28;20278;-77
2023/04/22 10:39:23;;;;;;;8.57;3.15;;;;;;;20.69;57.57;94362.84;5099238;28;20204;-79
2023/04/22 10:41:53;;;;;;;6.03;3.70;;;;;;;21.04;51.31;94358.84;5099884;28;20212;-78
2023/04/22 10:44:21;;;;;;;6.70;3.67;;;;;;;21.14;45.15;94356.06;5097432;28;20200;-77
2023/04/22 10:47:11;;;;;;;10.73;3.78;;;;;;;21.27;43.60;94363.22;5106347;28;20235;-78
2023/04/22 10:49:39;;;;;;;6.55;3.55;;;;;;;21.41;43.14;94356.09;5098419;28;20207;-79
2023/04/22 10:52:08;;;;;;;4.82;3.30;;;;;;;21.39;42.34;94368.03;5096581;28;20204;-78
2023/04/22 10:54:58;;;;;;;5.28;3.30;;;;;;;21.43;43.20;94372.47;5098473;28;20691;-79
2023/04/22 10:57:35;;;;;;;8.15;3.25;;;;;;;21.32;41.41;94363.16;5099003;28;20295;-80
2023/04/22 11:00:17;;;;;;;4.28;3.17;;;;;;;21.34;43.75;94357.56;5098488;28;20199;-78
2023/04/22 11:02:46;;;;;;;7.85;3.45;;;;;;;21.34;43.10;94360.22;5098840;28;20212;-79
2023/04/22 11:05:21;;;;;;;6.13;3.20;;;;;;;21.37;42.01;94367.56;5091768;28;20227;-78
2023/04/22 11:07:49;;;;;;;7.07;3.67;;;;;;;21.30;42.44;94359.22;5095763;28;20211;-78
2023/04/22 11:10:39;;;;;;;6.70;3.20;;;;;;;21.45;41.51;94369.53;5096705;28;20228;-78
2023/04/22 11:13:08;;;;;;;6.50;3.30;;;;;;;21.53;42.01;94373.38;5091582;28;20201;-79
2023/04/22 11:15:37;;;;;;;13.60;3.30;;;;;;;21.65;41.92;94376.28;5097386;28;20298;-79
2023/04/22 11:18:09;;;;;;;9.02;3.40;;;;;;;21.79;40.55;94375.22;5095706;28;20261;-79
2023/04/22 11:20:36;;;;;;;7.13;2.92;;;;;;;21.82;41.44;94366.69;5094513;28;20304;-80
2023/04/22 11:23:04;;;;;;;4.30;2.90;;;;;;;21.92;43.09;94381.63;5091912;28;20200;-80
2023/04/22 11:25:31;;;;;;;2.72;2.50;;;;;;;21.79;41.52;94383.16;5091742;28;20285;-80